createdAt,value
2018-02-09T00:02:13.572Z,98234.58
2018-02-09T00:04:41.110Z,98235.34
2018-02-09T00:07:08.651Z,98245.50
2018-02-09T00:09:36.200Z,98242.28
2018-02-09T00:12:03.815Z,98241.27
2018-02-09T00:14:31.397Z,98234.77
2018-02-09T00:16:59.071Z,98239.91
2018-02-09T00:19:26.591Z,98235.01
2018-02-09T00:21:54.175Z,98236.16
2018-02-09T00:24:21.701Z,98238.02
2018-02-09T00:26:49.297Z,98239.75
2018-02-09T00:29:16.851Z,98237.58
2018-02-09T00:31:44.398Z,98236.89
2018-02-09T00:34:11.911Z,98233.89
2018-02-09T00:36:39.580Z,98227.93
2018-02-09T00:39:07.252Z,98228.41
2018-02-09T00:41:34.857Z,98227.79
2018-02-09T00:44:02.396Z,98222.38
2018-02-09T00:46:29.945Z,98221.19
2018-02-09T00:48:57.535Z,98220.50
2018-02-09T00:51:26.025Z,98222.24
2018-02-09T00:53:53.600Z,98223.70
2018-02-09T00:56:21.255Z,98217.57
2018-02-09T00:58:48.832Z,98213.99
2018-02-09T01:01:16.457Z,98214.88
2018-02-09T01:03:44.027Z,98219.80
2018-02-09T01:06:11.607Z,98214.18
2018-02-09T01:08:39.130Z,98217.83
2018-02-09T01:11:06.680Z,98218.22
2018-02-09T01:13:34.262Z,98222.44
2018-02-09T01:16:01.835Z,98213.36
2018-02-09T01:18:30.405Z,98211.16
2018-02-09T01:20:58.038Z,98216.61
2018-02-09T01:23:25.631Z,98215.52
2018-02-09T01:25:53.164Z,98212.94
2018-02-09T01:28:20.742Z,98212.66
2018-02-09T01:30:48.826Z,98215.38
2018-02-09T01:33:16.390Z,98216.17
2018-02-09T01:35:43.909Z,98213.89
2018-02-09T01:38:11.472Z,98211.98
2018-02-09T01:40:39.090Z,98211.34
2018-02-09T01:43:06.797Z,98217.41
2018-02-09T01:45:34.361Z,98210.98
2018-02-09T01:48:01.991Z,98203.36
2018-02-09T01:50:29.630Z,98201.80
2018-02-09T01:52:57.201Z,98207.85
2018-02-09T01:55:24.756Z,98209.39
2018-02-09T01:57:52.279Z,98204.55
2018-02-09T02:00:19.986Z,98201.79
2018-02-09T02:02:47.524Z,98202.78
2018-02-09T02:05:15.120Z,98204.70
2018-02-09T02:07:42.641Z,98195.61
2018-02-09T02:10:10.235Z,98196.23
2018-02-09T02:12:37.990Z,98186.50
2018-02-09T02:15:05.594Z,98195.59
2018-02-09T02:17:33.177Z,98188.27
2018-02-09T02:20:00.762Z,98185.54
2018-02-09T02:22:28.326Z,98176.48
2018-02-09T02:24:55.985Z,98177.83
2018-02-09T02:27:23.506Z,98180.66
2018-02-09T02:29:51.037Z,98173.83
2018-02-09T02:32:18.577Z,98171.69
2018-02-09T02:34:46.100Z,98173.55
2018-02-09T02:37:13.781Z,98163.14
2018-02-09T02:39:41.820Z,98169.21
2018-02-09T02:42:09.410Z,98168.56
2018-02-09T02:44:37.011Z,98167.55
2018-02-09T02:47:04.581Z,98164.53
2018-02-09T02:49:32.104Z,98154.75
2018-02-09T02:51:59.642Z,98153.02
2018-02-09T02:54:27.160Z,98157.58
2018-02-09T02:56:54.657Z,98152.22
2018-02-09T02:59:22.220Z,98149.78
2018-02-09T03:01:49.732Z,98150.93
2018-02-09T03:04:17.336Z,98146.25
2018-02-09T03:06:46.159Z,98152.27
2018-02-09T03:09:13.695Z,98148.36
2018-02-09T03:11:41.452Z,98149.14
2018-02-09T03:14:09.009Z,98147.41
2018-02-09T03:16:36.587Z,98157.11
2018-02-09T03:19:04.197Z,98151.86
2018-02-09T03:21:31.747Z,98149.72
2018-02-09T03:23:59.276Z,98148.34
2018-02-09T03:26:26.856Z,98139.16
2018-02-09T03:28:54.883Z,98145.69
2018-02-09T03:31:22.475Z,98145.49
2018-02-09T03:33:50.020Z,98145.62
2018-02-09T03:36:17.768Z,98138.86
2018-02-09T03:38:45.327Z,98145.92
2018-02-09T03:41:12.871Z,98145.34
2018-02-09T03:43:40.410Z,98139.13
2018-02-09T03:46:08.012Z,98138.89
2018-02-09T03:48:35.565Z,98138.42
2018-02-09T03:51:03.160Z,98136.02
2018-02-09T03:53:30.767Z,98138.09
2018-02-09T03:55:58.297Z,98131.98
2018-02-09T03:58:25.822Z,98137.91
2018-02-09T04:00:53.453Z,98137.16
2018-02-09T04:03:20.964Z,98140.67
2018-02-09T04:05:48.514Z,98136.82
2018-02-09T04:08:16.226Z,98137.91
2018-02-09T04:10:43.771Z,98139.28
2018-02-09T04:13:11.286Z,98136.30
2018-02-09T04:15:38.820Z,98133.09
2018-02-09T04:18:06.480Z,98137.75
2018-02-09T04:20:34.025Z,98128.97
2018-02-09T04:23:01.539Z,98134.47
2018-02-09T04:25:29.057Z,98131.86
2018-02-09T04:27:56.706Z,98139.70
2018-02-09T04:30:24.297Z,98136.81
2018-02-09T04:32:51.945Z,98140.14
2018-02-09T04:35:19.528Z,98135.22
2018-02-09T04:37:47.127Z,98130.77
2018-02-09T04:40:14.645Z,98127.36
2018-02-09T04:42:42.251Z,98128.16
2018-02-09T04:45:09.782Z,98125.31
2018-02-09T04:47:37.375Z,98122.27
2018-02-09T04:50:04.905Z,98130.66
2018-02-09T04:52:32.727Z,98126.33
2018-02-09T04:55:00.305Z,98124.47
2018-02-09T04:57:27.835Z,98125.86
2018-02-09T04:59:55.390Z,98120.83
2018-02-09T05:02:23.058Z,98118.81
2018-02-09T05:04:50.686Z,98119.68
2018-02-09T05:07:18.230Z,98113.53
2018-02-09T05:09:45.752Z,98116.16
2018-02-09T05:12:13.285Z,98117.41
2018-02-09T05:14:40.812Z,98111.85
2018-02-09T05:17:08.395Z,98111.52
2018-02-09T05:19:36.015Z,98107.49
2018-02-09T05:22:03.621Z,98107.99
2018-02-09T05:24:31.232Z,98111.77
2018-02-09T05:26:58.750Z,98114.81
2018-02-09T05:29:26.351Z,98110.89
2018-02-09T05:31:53.928Z,98108.45
2018-02-09T05:34:21.502Z,98105.80
2018-02-09T05:36:49.230Z,98108.52
2018-02-09T05:39:16.730Z,98099.66
2018-02-09T05:41:44.345Z,98102.98
2018-02-09T05:44:12.078Z,98094.13
2018-02-09T05:46:39.775Z,98103.77
2018-02-09T05:49:07.291Z,98097.70
2018-02-09T05:51:34.846Z,98096.32
2018-02-09T05:54:02.480Z,98099.37
2018-02-09T05:56:30.076Z,98102.02
2018-02-09T05:58:57.692Z,98092.59
2018-02-09T06:01:25.273Z,98088.97
2018-02-09T06:03:52.869Z,98085.83
2018-02-09T06:06:20.411Z,98089.38
2018-02-09T06:08:47.961Z,98089.64
2018-02-09T06:11:15.499Z,98088.23
2018-02-09T06:13:43.155Z,98092.33
2018-02-09T06:16:10.715Z,98084.39
2018-02-09T06:18:38.246Z,98090.98
2018-02-09T06:21:05.766Z,98089.19
2018-02-09T06:23:33.340Z,98091.05
2018-02-09T06:26:00.913Z,98089.06
2018-02-09T06:28:28.449Z,98086.34
2018-02-09T06:30:55.970Z,98087.28
2018-02-09T06:33:23.564Z,98085.78
2018-02-09T06:35:51.146Z,98086.00
2018-02-09T06:38:18.687Z,98085.14
2018-02-09T06:40:46.282Z,98086.77
2018-02-09T06:43:13.820Z,98087.03
2018-02-09T06:45:41.412Z,98085.19
2018-02-09T06:48:08.960Z,98086.19
2018-02-09T06:50:36.597Z,98086.72
2018-02-09T06:53:04.261Z,98087.81
2018-02-09T06:55:31.787Z,98083.89
2018-02-09T06:57:59.350Z,98087.50
2018-02-09T07:00:26.872Z,98087.66
2018-02-09T07:02:54.520Z,98088.80
2018-02-09T07:05:22.150Z,98094.31
2018-02-09T07:07:49.773Z,98089.96
2018-02-09T07:10:17.317Z,98091.31
2018-02-09T07:12:44.900Z,98087.52
2018-02-09T07:15:12.506Z,98090.67
2018-02-09T07:17:40.035Z,98086.18
2018-02-09T07:20:07.561Z,98089.55
2018-02-09T07:22:35.101Z,98085.20
2018-02-09T07:25:02.637Z,98089.25
2018-02-09T07:27:30.178Z,98083.09
2018-02-09T07:29:57.875Z,98079.04
2018-02-09T07:32:25.413Z,98076.89
2018-02-09T07:34:52.955Z,98080.02
2018-02-09T07:37:20.506Z,98075.62
2018-02-09T07:39:48.166Z,98076.77
2018-02-09T07:42:15.857Z,98074.00
2018-02-09T07:44:43.407Z,98069.56
2018-02-09T07:47:11.004Z,98070.29
2018-02-09T07:49:38.553Z,98076.19
2018-02-09T07:52:06.207Z,98066.55
2018-02-09T07:54:33.725Z,98069.05
2018-02-09T07:57:01.272Z,98067.34
2018-02-09T07:59:28.820Z,98060.25
2018-02-09T08:01:56.573Z,98062.67
2018-02-09T08:04:24.122Z,98063.44
2018-02-09T08:06:51.681Z,98055.83
2018-02-09T08:09:19.307Z,98048.49
2018-02-09T08:11:47.072Z,98056.48
2018-02-09T08:14:14.651Z,98056.38
2018-02-09T08:16:42.185Z,98050.16
2018-02-09T08:19:09.826Z,98044.83
2018-02-09T08:21:37.343Z,98046.41
2018-02-09T08:24:04.950Z,98048.86
2018-02-09T08:26:32.570Z,98044.91
2018-02-09T08:29:00.125Z,98042.92
2018-02-09T08:31:27.646Z,98045.07
2018-02-09T08:33:55.167Z,98046.10
2018-02-09T08:36:22.688Z,98042.63
2018-02-09T08:38:50.301Z,98039.95
2018-02-09T08:41:18.045Z,98037.23
2018-02-09T08:43:45.612Z,98041.59
2018-02-09T08:46:13.185Z,98033.80
2018-02-09T08:48:40.775Z,98032.12
2018-02-09T08:51:08.285Z,98033.45
2018-02-09T08:53:35.891Z,98027.97
2018-02-09T08:56:03.496Z,98030.08
2018-02-09T08:58:31.111Z,98023.92
2018-02-09T09:00:58.725Z,98027.31
2018-02-09T09:03:26.386Z,98030.67
2018-02-09T09:05:53.916Z,98023.31
2018-02-09T09:08:21.472Z,98013.77
2018-02-09T09:10:49.765Z,98020.95
2018-02-09T09:13:17.435Z,98021.30
2018-02-09T09:15:44.977Z,98013.63
2018-02-09T09:18:12.612Z,98014.03
2018-02-09T09:20:40.208Z,98007.12
2018-02-09T09:23:07.755Z,98010.05
2018-02-09T09:25:35.311Z,98005.86
2018-02-09T09:28:02.867Z,98003.37
2018-02-09T09:30:30.427Z,98008.48
2018-02-09T09:32:57.959Z,98010.31
2018-02-09T09:35:25.522Z,98006.75
2018-02-09T09:37:53.095Z,98004.55
2018-02-09T09:40:20.686Z,97999.66
2018-02-09T09:42:48.238Z,98002.78
2018-02-09T09:45:16.252Z,97999.08
2018-02-09T09:47:43.781Z,98001.50
2018-02-09T09:50:11.441Z,97999.16
2018-02-09T09:52:39.047Z,97997.58
2018-02-09T09:55:06.592Z,98002.32
2018-02-09T09:57:34.147Z,97996.72
2018-02-09T10:00:01.738Z,97996.17
2018-02-09T10:02:42.322Z,97995.48
2018-02-09T10:05:09.902Z,97993.39
2018-02-09T10:07:37.440Z,97992.41
2018-02-09T10:10:04.975Z,97994.92
2018-02-09T10:12:32.505Z,97991.47
2018-02-09T10:15:00.131Z,97991.17
2018-02-09T10:17:27.753Z,97984.26
2018-02-09T10:19:55.300Z,97985.06
2018-02-09T10:22:22.846Z,97974.75
2018-02-09T10:24:50.497Z,97976.05
2018-02-09T10:27:18.028Z,97974.36
2018-02-09T10:29:45.602Z,97973.27
2018-02-09T10:32:13.152Z,97966.60
2018-02-09T10:34:40.712Z,97963.88
2018-02-09T10:37:08.376Z,97964.61
2018-02-09T10:39:35.902Z,97959.09
2018-02-09T10:42:03.427Z,97963.39
2018-02-09T10:44:30.951Z,97960.88
2018-02-09T10:46:58.636Z,97950.91
2018-02-09T10:49:26.179Z,97945.34
2018-02-09T10:51:53.711Z,97940.43
2018-02-09T10:54:21.256Z,97948.93
2018-02-09T10:56:48.900Z,97942.31
2018-02-09T10:59:16.516Z,97933.20
2018-02-09T11:01:44.238Z,97934.34
2018-02-09T11:04:11.794Z,97930.09
2018-02-09T11:06:39.321Z,97936.05
2018-02-09T11:09:06.848Z,97928.61
2018-02-09T11:11:34.476Z,97934.98
2018-02-09T11:14:02.086Z,97926.23
2018-02-09T11:16:29.646Z,97929.23
2018-02-09T11:18:57.197Z,97920.49
2018-02-09T11:21:24.861Z,97919.67
2018-02-09T11:23:52.396Z,97916.52
2018-02-09T11:26:20.082Z,97912.34
2018-02-09T11:28:47.710Z,97911.67
2018-02-09T11:31:15.343Z,97916.75
2018-02-09T11:33:43.000Z,97907.26
2018-02-09T11:36:10.539Z,97909.92
2018-02-09T11:38:38.116Z,97908.71
2018-02-09T11:41:05.641Z,97903.08
2018-02-09T11:43:33.187Z,97901.91
2018-02-09T11:46:00.723Z,97896.62
2018-02-09T11:48:28.311Z,97892.09
2018-02-09T11:50:55.837Z,97891.06
2018-02-09T11:53:23.387Z,97890.83
2018-02-09T11:55:50.906Z,97887.30
2018-02-09T11:58:18.608Z,97882.48
2018-02-09T12:00:46.147Z,97888.84
2018-02-09T12:03:13.691Z,97877.75
2018-02-09T12:05:41.230Z,97878.30
2018-02-09T12:08:08.790Z,97875.64
2018-02-09T12:10:36.352Z,97870.77
2018-02-09T12:13:03.907Z,97868.45
2018-02-09T12:15:31.508Z,97861.11
2018-02-09T12:17:59.364Z,97855.82
2018-02-09T12:20:26.953Z,97850.34
2018-02-09T12:22:54.481Z,97847.00
2018-02-09T12:25:22.078Z,97842.98
2018-02-09T12:27:49.726Z,97830.81
2018-02-09T12:30:17.286Z,97831.86
2018-02-09T12:32:44.847Z,97825.86
2018-02-09T12:35:12.713Z,97827.88
2018-02-09T12:37:40.271Z,97818.57
2018-02-09T12:40:07.838Z,97819.52
2018-02-09T12:42:35.495Z,97819.41
2018-02-09T12:45:03.032Z,97816.84
2018-02-09T12:47:30.600Z,97808.84
2018-02-09T12:49:58.238Z,97804.67
2018-02-09T12:52:25.792Z,97808.09
2018-02-09T12:54:53.591Z,97802.64
2018-02-09T12:57:21.157Z,97797.99
2018-02-09T12:59:48.813Z,97803.22
2018-02-09T13:02:16.376Z,97795.32
2018-02-09T13:04:43.910Z,97794.09
2018-02-09T13:07:11.508Z,97792.23
2018-02-09T13:09:39.132Z,97789.54
2018-02-09T13:12:06.707Z,97791.02
2018-02-09T13:14:46.100Z,97785.38
2018-02-09T13:17:13.671Z,97781.55
2018-02-09T13:19:41.221Z,97776.94
2018-02-09T13:22:08.940Z,97774.03
2018-02-09T13:24:36.557Z,97779.64
2018-02-09T13:27:04.121Z,97783.59
2018-02-09T13:29:31.657Z,97781.26
2018-02-09T13:31:59.200Z,97781.50
2018-02-09T13:34:26.758Z,97775.98
2018-02-09T13:40:06.506Z,97770.42
2018-02-09T13:42:34.023Z,97774.80
2018-02-09T13:45:01.635Z,97765.31
2018-02-09T13:47:29.435Z,97772.34
2018-02-09T13:49:57.038Z,97769.09
2018-02-09T13:52:25.807Z,97763.94
2018-02-09T13:54:53.357Z,97761.41
2018-02-09T13:57:21.090Z,97759.56
2018-02-09T13:59:48.671Z,97760.39
2018-02-09T14:02:16.246Z,97758.91
2018-02-09T14:04:43.795Z,97757.05
2018-02-09T14:07:11.334Z,97753.41
2018-02-09T14:09:38.913Z,97750.27
2018-02-09T14:12:06.435Z,97753.05
2018-02-09T14:14:34.001Z,97747.73
2018-02-09T14:17:01.536Z,97751.52
2018-02-09T14:19:29.100Z,97756.43
2018-02-09T14:21:56.626Z,97753.85
2018-02-09T14:24:24.155Z,97749.80
2018-02-09T14:26:51.670Z,97741.24
2018-02-09T14:29:19.194Z,97747.02
2018-02-09T14:31:46.746Z,97744.44
2018-02-09T14:34:14.286Z,97753.89
2018-02-09T14:36:42.051Z,97751.34
2018-02-09T14:39:09.560Z,97755.02
2018-02-09T14:41:37.620Z,97749.55
2018-02-09T14:44:05.188Z,97752.20
2018-02-09T14:46:32.708Z,97741.86
2018-02-09T14:49:00.248Z,97741.20
2018-02-09T14:51:27.841Z,97740.94
2018-02-09T14:53:55.397Z,97734.78
2018-02-09T14:56:22.952Z,97730.62
2018-02-09T14:58:50.738Z,97731.30
2018-02-09T15:01:18.259Z,97730.50
2018-02-09T15:03:45.893Z,97728.80
2018-02-09T15:06:13.422Z,97728.93
2018-02-09T15:08:40.986Z,97725.64
2018-02-09T15:11:08.512Z,97728.42
2018-02-09T15:13:36.047Z,97728.30
2018-02-09T15:16:03.592Z,97725.64
2018-02-09T15:18:31.122Z,97726.41
2018-02-09T15:20:58.787Z,97734.11
2018-02-09T15:23:26.326Z,97733.86
2018-02-09T15:25:53.871Z,97734.08
2018-02-09T15:28:21.411Z,97735.36
2018-02-09T15:30:49.427Z,97739.33
2018-02-09T15:33:17.248Z,97737.37
2018-02-09T15:35:44.966Z,97730.65
2018-02-09T15:38:12.506Z,97728.08
2018-02-09T15:40:40.083Z,97736.88
2018-02-09T15:43:07.683Z,97734.73
2018-02-09T15:45:35.218Z,97734.42
2018-02-09T15:48:02.822Z,97730.63
2018-02-09T15:50:30.388Z,97733.05
2018-02-09T15:52:57.985Z,97728.85
2018-02-09T15:55:25.565Z,97729.94
2018-02-09T15:57:53.157Z,97736.70
2018-02-09T16:00:20.791Z,97729.42
2018-02-09T16:02:48.311Z,97728.70
2018-02-09T16:05:15.872Z,97722.87
2018-02-09T16:07:43.399Z,97733.92
2018-02-09T16:10:10.983Z,97728.33
2018-02-09T16:12:38.646Z,97730.47
2018-02-09T16:15:06.207Z,97732.02
2018-02-09T16:17:33.768Z,97727.34
2018-02-09T16:20:01.332Z,97737.09
2018-02-09T16:22:28.906Z,97732.84
2018-02-09T16:24:56.569Z,97739.61
2018-02-09T16:27:24.217Z,97742.45
2018-02-09T16:29:51.873Z,97738.05
2018-02-09T16:32:19.486Z,97733.40
2018-02-09T16:34:47.306Z,97733.20
2018-02-09T16:37:14.893Z,97737.56
2018-02-09T16:39:42.524Z,97733.70
2018-02-09T16:42:10.146Z,97745.45
2018-02-09T16:44:37.851Z,97737.35
2018-02-09T16:47:05.537Z,97735.38
2018-02-09T16:49:33.369Z,97741.11
2018-02-09T16:52:01.041Z,97742.35
2018-02-09T16:54:28.618Z,97742.88
2018-02-09T16:56:56.311Z,97748.19
2018-02-09T16:59:23.977Z,97745.77
2018-02-09T17:01:51.701Z,97740.27
2018-02-09T17:04:19.467Z,97747.48
2018-02-09T17:06:47.091Z,97753.19
2018-02-09T17:09:14.877Z,97745.74
2018-02-09T17:11:42.415Z,97753.42
2018-02-09T17:14:09.989Z,97752.96
2018-02-09T17:16:37.759Z,97755.02
2018-02-09T17:19:05.359Z,97755.74
2018-02-09T17:21:32.985Z,97753.51
2018-02-09T17:24:00.768Z,97759.97
2018-02-09T17:26:28.351Z,97758.03
2018-02-09T17:28:55.938Z,97765.36
2018-02-09T17:31:23.628Z,97774.33
2018-02-09T17:33:51.293Z,97764.23
2018-02-09T17:36:18.900Z,97770.15
2018-02-09T17:38:46.505Z,97772.00
2018-02-09T17:41:14.091Z,97773.25
2018-02-09T17:43:41.661Z,97776.46
2018-02-09T17:46:09.392Z,97769.19
2018-02-09T17:48:36.956Z,97772.35
2018-02-09T17:51:04.481Z,97772.23
2018-02-09T17:53:32.123Z,97768.41
2018-02-09T17:55:59.692Z,97772.29
2018-02-09T17:58:27.255Z,97767.91
2018-02-09T18:00:54.802Z,97773.91
2018-02-09T18:03:22.487Z,97770.38
2018-02-09T18:05:50.076Z,97773.31
2018-02-09T18:08:17.751Z,97773.19
2018-02-09T18:10:45.301Z,97777.52
2018-02-09T18:13:13.066Z,97779.24
2018-02-09T18:15:40.794Z,97790.41
2018-02-09T18:18:08.422Z,97787.59
2018-02-09T18:20:35.992Z,97793.43
2018-02-09T18:23:03.595Z,97799.13
2018-02-09T18:25:31.177Z,97796.45
2018-02-09T18:27:58.753Z,97796.38
2018-02-09T18:30:26.404Z,97790.37
2018-02-09T18:32:54.027Z,97795.42
2018-02-09T18:35:21.663Z,97805.20
2018-02-09T18:37:49.209Z,97802.42
2018-02-09T18:40:16.782Z,97796.23
2018-02-09T18:42:44.488Z,97800.97
2018-02-09T18:45:12.056Z,97795.31
2018-02-09T18:47:39.709Z,97791.50
2018-02-09T18:50:07.370Z,97795.77
2018-02-09T18:52:34.951Z,97802.17
2018-02-09T18:55:02.546Z,97802.23
2018-02-09T18:57:30.211Z,97813.42
2018-02-09T18:59:57.899Z,97809.86
2018-02-09T19:02:25.495Z,97807.17
2018-02-09T19:04:53.107Z,97809.22
2018-02-09T19:07:20.648Z,97806.84
2018-02-09T19:09:48.209Z,97802.88
2018-02-09T19:12:15.796Z,97806.44
2018-02-09T19:14:43.410Z,97810.32
2018-02-09T19:17:11.078Z,97807.75
2018-02-09T19:19:38.647Z,97800.06
2018-02-09T19:22:06.282Z,97806.83
2018-02-09T19:24:33.871Z,97809.78
2018-02-09T19:27:01.472Z,97811.57
2018-02-09T19:29:29.026Z,97818.12
2018-02-09T19:31:56.687Z,97817.88
2018-02-09T19:34:24.263Z,97813.75
2018-02-09T19:36:51.773Z,97820.23
2018-02-09T19:39:19.361Z,97816.17
2018-02-09T19:41:46.925Z,97817.53
2018-02-09T19:44:14.498Z,97807.69
2018-02-09T19:46:42.163Z,97806.58
2018-02-09T19:49:09.822Z,97810.72
2018-02-09T19:51:37.540Z,97807.31
2018-02-09T19:54:05.138Z,97805.66
2018-02-09T19:56:32.891Z,97804.18
2018-02-09T19:59:00.423Z,97801.00
2018-02-09T20:01:27.967Z,97801.81
2018-02-09T20:03:55.511Z,97802.66
2018-02-09T20:06:23.119Z,97813.13
2018-02-09T20:08:50.702Z,97813.98
2018-02-09T20:11:18.274Z,97814.92
2018-02-09T20:13:45.976Z,97805.45
2018-02-09T20:16:13.592Z,97813.52
2018-02-09T20:18:41.139Z,97808.50
2018-02-09T20:21:08.672Z,97814.09
2018-02-09T20:23:36.367Z,97820.33
2018-02-09T20:26:04.096Z,97817.77
2018-02-09T20:28:31.904Z,97822.42
2018-02-09T20:30:59.558Z,97815.63
2018-02-09T20:33:27.164Z,97814.23
2018-02-09T20:35:54.736Z,97821.19
2018-02-09T20:38:22.329Z,97817.38
2018-02-09T20:40:49.998Z,97823.75
2018-02-09T20:43:17.661Z,97822.41
2018-02-09T20:45:45.266Z,97823.64
2018-02-09T20:48:12.843Z,97824.20
2018-02-09T20:50:40.394Z,97824.02
2018-02-09T20:53:07.941Z,97830.27
2018-02-09T20:55:35.461Z,97823.24
2018-02-09T20:58:03.040Z,97828.14
2018-02-09T21:00:30.623Z,97826.20
2018-02-09T21:02:58.187Z,97822.35
2018-02-09T21:05:25.796Z,97830.83
2018-02-09T21:07:53.328Z,97827.81
2018-02-09T21:10:20.891Z,97827.08
2018-02-09T21:12:48.426Z,97824.73
2018-02-09T21:15:15.978Z,97824.59
2018-02-09T21:17:43.592Z,97824.58
2018-02-09T21:20:11.128Z,97828.86
2018-02-09T21:22:38.812Z,97832.42
2018-02-09T21:25:06.452Z,97828.62
2018-02-09T21:27:34.062Z,97831.31
2018-02-09T21:30:01.635Z,97833.50
2018-02-09T21:32:29.184Z,97834.85
2018-02-09T21:34:56.920Z,97832.66
2018-02-09T21:37:24.474Z,97835.69
2018-02-09T21:39:52.042Z,97834.74
2018-02-09T21:42:19.609Z,97832.22
2018-02-09T21:44:47.146Z,97829.23
2018-02-09T21:47:14.685Z,97833.77
2018-02-09T21:49:42.224Z,97834.34
2018-02-09T21:52:09.823Z,97832.86
2018-02-09T21:54:37.343Z,97838.35
2018-02-09T21:57:04.896Z,97832.69
2018-02-09T21:59:32.409Z,97835.27
2018-02-09T22:01:59.971Z,97839.58
2018-02-09T22:04:27.521Z,97835.34
2018-02-09T22:06:55.172Z,97841.91
2018-02-09T22:09:22.751Z,97841.63
2018-02-09T22:11:50.312Z,97840.05
2018-02-09T22:14:17.980Z,97841.56
2018-02-09T22:16:45.520Z,97842.66
2018-02-09T22:19:13.094Z,97840.95
2018-02-09T22:21:40.677Z,97847.05
2018-02-09T22:24:08.256Z,97841.02
2018-02-09T22:26:35.811Z,97846.44
2018-02-09T22:29:03.341Z,97840.83
2018-02-09T22:31:30.868Z,97846.23
2018-02-09T22:33:58.403Z,97837.69
2018-02-09T22:36:25.945Z,97841.92
2018-02-09T22:38:53.518Z,97841.27
2018-02-09T22:41:21.047Z,97837.13
2018-02-09T22:43:48.610Z,97836.25
2018-02-09T22:46:16.168Z,97829.53
2018-02-09T22:48:43.742Z,97834.85
2018-02-09T22:51:11.268Z,97836.59
2018-02-09T22:53:38.812Z,97833.15
2018-02-09T22:56:06.382Z,97835.42
2018-02-09T22:58:33.947Z,97838.03
2018-02-09T23:01:01.509Z,97838.87
2018-02-09T23:03:29.032Z,97838.73
2018-02-09T23:05:56.571Z,97840.08
2018-02-09T23:08:24.125Z,97836.70
2018-02-09T23:10:51.697Z,97839.18
2018-02-09T23:13:19.253Z,97852.80
2018-02-09T23:15:46.959Z,97846.05
2018-02-09T23:18:14.575Z,97850.66
2018-02-09T23:20:42.102Z,97849.23
2018-02-09T23:23:09.629Z,97856.65
2018-02-09T23:25:37.177Z,97859.61
2018-02-09T23:28:04.768Z,97855.95
2018-02-09T23:30:32.286Z,97852.97
2018-02-09T23:32:59.795Z,97845.41
2018-02-09T23:35:27.326Z,97853.44
2018-02-09T23:37:54.892Z,97847.66
2018-02-09T23:40:22.604Z,97851.22
2018-02-09T23:42:50.163Z,97852.55
2018-02-09T23:45:17.766Z,97860.70
2018-02-09T23:47:45.340Z,97853.80
2018-02-09T23:50:12.890Z,97863.16
2018-02-09T23:52:40.405Z,97859.36
2018-02-09T23:55:07.947Z,97863.00
2018-02-09T23:57:35.471Z,97870.77
